sensor_id;sensor_type;location;lat;lon;timestamp;P1;durP1;ratioP1;P2;durP2;ratioP2
22673;SDS011;11504;43.334;21.918;2023-02-12T00:01:11;191.0;;;161.0;;
22673;SDS011;11504;43.334;21.918;2023-02-12T00:05:49;191.0;;;161.0;;
22673;SDS011;11504;43.334;21.918;2023-02-12T00:10:26;148.0;;;124.0;;
22673;SDS011;11504;43.334;21.918;2023-02-12T00:15:03;148.0;;;124.0;;
22673;SDS011;11504;43.334;21.918;2023-02-12T00:19:41;104.0;;;87.0;;
22673;SDS011;11504;43.334;21.918;2023-02-12T00:24:17;104.0;;;87.0;;
22673;SDS011;11504;43.334;21.918;2023-02-12T00:28:54;104.0;;;87.0;;
22673;SDS011;11504;43.334;21.918;2023-02-12T00:33:31;101.0;;;84.0;;
22673;SDS011;11504;43.334;21.918;2023-02-12T00:38:08;101.0;;;84.0;;
22673;SDS011;11504;43.334;21.918;2023-02-12T00:42:45;98.0;;;81.0;;
22673;SDS011;11504;43.334;21.918;2023-02-12T00:47:22;98.0;;;81.0;;
22673;SDS011;11504;43.334;21.918;2023-02-12T00:52:00;110.0;;;90.0;;
22673;SDS011;11504;43.334;21.918;2023-02-12T00:56:40;110.0;;;90.0;;
22673;SDS011;11504;43.334;21.918;2023-02-12T01:01:18;123.0;;;98.0;;
22673;SDS011;11504;43.334;21.918;2023-02-12T01:05:55;123.0;;;98.0;;
22673;SDS011;11504;43.334;21.918;2023-02-12T01:10:32;104.0;;;86.0;;
22673;SDS011;11504;43.334;21.918;2023-02-12T01:15:10;104.0;;;86.0;;
22673;SDS011;11504;43.334;21.918;2023-02-12T01:19:47;85.0;;;75.0;;
22673;SDS011;11504;43.334;21.918;2023-02-12T01:24:24;85.0;;;75.0;;
22673;SDS011;11504;43.334;21.918;2023-02-12T01:29:05;82.0;;;72.0;;
22673;SDS011;11504;43.334;21.918;2023-02-12T01:33:48;82.0;;;72.0;;
22673;SDS011;11504;43.334;21.918;2023-02-12T01:38:30;82.0;;;72.0;;
22673;SDS011;11504;43.334;21.918;2023-02-12T01:43:11;79.0;;;70.0;;
22673;SDS011;11504;43.334;21.918;2023-02-12T01:47:51;79.0;;;70.0;;
22673;SDS011;11504;43.334;21.918;2023-02-12T01:52:35;86.0;;;73.0;;
22673;SDS011;11504;43.334;21.918;2023-02-12T01:57:29;86.0;;;73.0;;
22673;SDS011;11504;43.334;21.918;2023-02-12T02:02:16;93.0;;;76.0;;
22673;SDS011;11504;43.334;21.918;2023-02-12T02:07:00;93.0;;;76.0;;
22673;SDS011;11504;43.334;21.918;2023-02-12T02:11:41;90.0;;;76.0;;
22673;SDS011;11504;43.334;21.918;2023-02-12T02:16:25;90.0;;;76.0;;
22673;SDS011;11504;43.334;21.918;2023-02-12T02:22:17;88.0;;;76.0;;
22673;SDS011;11504;43.334;21.918;2023-02-12T02:27:27;88.0;;;76.0;;
22673;SDS011;11504;43.334;21.918;2023-02-12T02:32:28;92.0;;;78.0;;
22673;SDS011;11504;43.334;21.918;2023-02-12T02:37:26;92.0;;;78.0;;
22673;SDS011;11504;43.334;21.918;2023-02-12T02:42:26;97.0;;;80.0;;
22673;SDS011;11504;43.334;21.918;2023-02-12T02:47:15;97.0;;;80.0;;
22673;SDS011;11504;43.334;21.918;2023-02-12T02:52:13;96.0;;;78.0;;
22673;SDS011;11504;43.334;21.918;2023-02-12T02:57:09;96.0;;;78.0;;
22673;SDS011;11504;43.334;21.918;2023-02-12T03:02:05;95.0;;;76.0;;
22673;SDS011;11504;43.334;21.918;2023-02-12T03:07:01;95.0;;;76.0;;
22673;SDS011;11504;43.334;21.918;2023-02-12T03:11:54;98.0;;;80.0;;
22673;SDS011;11504;43.334;21.918;2023-02-12T03:16:58;98.0;;;80.0;;
22673;SDS011;11504;43.334;21.918;2023-02-12T03:21:59;101.0;;;83.0;;
22673;SDS011;11504;43.334;21.918;2023-02-12T03:26:58;101.0;;;83.0;;
22673;SDS011;11504;43.334;21.918;2023-02-12T03:32:26;101.0;;;84.0;;
22673;SDS011;11504;43.334;21.918;2023-02-12T03:37:40;101.0;;;84.0;;
22673;SDS011;11504;43.334;21.918;2023-02-12T03:43:01;101.0;;;86.0;;
22673;SDS011;11504;43.334;21.918;2023-02-12T03:48:18;101.0;;;86.0;;
22673;SDS011;11504;43.334;21.918;2023-02-12T03:53:16;102.0;;;86.0;;
22673;SDS011;11504;43.334;21.918;2023-02-12T03:58:02;102.0;;;86.0;;
22673;SDS011;11504;43.334;21.918;2023-02-12T04:02:48;102.0;;;86.0;;
22673;SDS011;11504;43.334;21.918;2023-02-12T04:07:26;102.0;;;86.0;;
22673;SDS011;11504;43.334;21.918;2023-02-12T04:12:32;111.0;;;90.0;;
22673;SDS011;11504;43.334;21.918;2023-02-12T04:17:45;111.0;;;90.0;;
22673;SDS011;11504;43.334;21.918;2023-02-12T04:23:06;120.0;;;95.0;;
22673;SDS011;11504;43.334;21.918;2023-02-12T04:28:46;120.0;;;95.0;;
22673;SDS011;11504;43.334;21.918;2023-02-12T04:34:16;122.0;;;100.0;;
22673;SDS011;11504;43.334;21.918;2023-02-12T04:39:26;123.0;;;104.0;;
22673;SDS011;11504;43.334;21.918;2023-02-12T04:44:23;123.0;;;104.0;;
22673;SDS011;11504;43.334;21.918;2023-02-12T04:49:20;118.0;;;98.0;;
22673;SDS011;11504;43.334;21.918;2023-02-12T04:54:01;118.0;;;98.0;;
22673;SDS011;11504;43.334;21.918;2023-02-12T04:58:38;118.0;;;98.0;;
22673;SDS011;11504;43.334;21.918;2023-02-12T05:03:15;113.0;;;91.0;;
22673;SDS011;11504;43.334;21.918;2023-02-12T05:07:51;113.0;;;91.0;;
22673;SDS011;11504;43.334;21.918;2023-02-12T05:12:28;112.0;;;94.0;;
22673;SDS011;11504;43.334;21.918;2023-02-12T05:17:04;112.0;;;94.0;;
22673;SDS011;11504;43.334;21.918;2023-02-12T05:21:41;111.0;;;96.0;;
22673;SDS011;11504;43.334;21.918;2023-02-12T05:26:21;111.0;;;96.0;;
22673;SDS011;11504;43.334;21.918;2023-02-12T05:31:00;108.0;;;93.0;;
22673;SDS011;11504;43.334;21.918;2023-02-12T05:35:40;108.0;;;93.0;;
22673;SDS011;11504;43.334;21.918;2023-02-12T05:40:18;104.0;;;90.0;;
22673;SDS011;11504;43.334;21.918;2023-02-12T05:44:54;104.0;;;90.0;;
22673;SDS011;11504;43.334;21.918;2023-02-12T05:49:31;104.0;;;90.0;;
22673;SDS011;11504;43.334;21.918;2023-02-12T05:54:09;104.0;;;90.0;;
22673;SDS011;11504;43.334;21.918;2023-02-12T05:58:53;104.0;;;90.0;;
22673;SDS011;11504;43.334;21.918;2023-02-12T06:03:36;103.0;;;89.0;;
22673;SDS011;11504;43.334;21.918;2023-02-12T06:08:13;103.0;;;89.0;;
22673;SDS011;11504;43.334;21.918;2023-02-12T06:12:53;93.0;;;82.0;;
22673;SDS011;11504;43.334;21.918;2023-02-12T06:17:32;93.0;;;82.0;;
22673;SDS011;11504;43.334;21.918;2023-02-12T06:22:10;83.0;;;75.0;;
22673;SDS011;11504;43.334;21.918;2023-02-12T06:26:51;83.0;;;75.0;;
22673;SDS011;11504;43.334;21.918;2023-02-12T06:31:33;99.0;;;86.0;;
22673;SDS011;11504;43.334;21.918;2023-02-12T06:36:13;99.0;;;86.0;;
22673;SDS011;11504;43.334;21.918;2023-02-12T06:40:51;115.0;;;98.0;;
22673;SDS011;11504;43.334;21.918;2023-02-12T06:45:28;115.0;;;98.0;;
22673;SDS011;11504;43.334;21.918;2023-02-12T06:50:06;115.0;;;97.0;;
22673;SDS011;11504;43.334;21.918;2023-02-12T06:54:44;115.0;;;97.0;;
22673;SDS011;11504;43.334;21.918;2023-02-12T06:59:21;115.0;;;96.0;;
22673;SDS011;11504;43.334;21.918;2023-02-12T07:04:01;115.0;;;96.0;;
22673;SDS011;11504;43.334;21.918;2023-02-12T07:08:39;115.0;;;96.0;;
22673;SDS011;11504;43.334;21.918;2023-02-12T07:13:16;112.0;;;95.0;;
22673;SDS011;11504;43.334;21.918;2023-02-12T07:17:53;112.0;;;95.0;;
22673;SDS011;11504;43.334;21.918;2023-02-12T07:22:30;110.0;;;94.0;;
22673;SDS011;11504;43.334;21.918;2023-02-12T07:27:06;110.0;;;94.0;;
22673;SDS011;11504;43.334;21.918;2023-02-12T07:31:43;122.0;;;108.0;;
22673;SDS011;11504;43.334;21.918;2023-02-12T07:36:20;122.0;;;108.0;;
22673;SDS011;11504;43.334;21.918;2023-02-12T07:41:10;134.0;;;123.0;;
22673;SDS011;11504;43.334;21.918;2023-02-12T07:45:51;134.0;;;123.0;;
22673;SDS011;11504;43.334;21.918;2023-02-12T07:50:28;136.0;;;118.0;;
22673;SDS011;11504;43.334;21.918;2023-02-12T07:55:07;136.0;;;118.0;;
22673;SDS011;11504;43.334;21.918;2023-02-12T07:59:43;138.0;;;114.0;;
22673;SDS011;11504;43.334;21.918;2023-02-12T08:04:23;138.0;;;114.0;;
22673;SDS011;11504;43.334;21.918;2023-02-12T08:09:03;138.0;;;114.0;;
22673;SDS011;11504;43.334;21.918;2023-02-12T08:13:44;140.0;;;120.0;;
22673;SDS011;11504;43.334;21.918;2023-02-12T08:18:21;140.0;;;120.0;;
22673;SDS011;11504;43.334;21.918;2023-02-12T08:22:58;142.0;;;126.0;;
22673;SDS011;11504;43.334;21.918;2023-02-12T08:27:34;142.0;;;126.0;;
22673;SDS011;11504;43.334;21.918;2023-02-12T08:32:10;162.0;;;146.0;;
22673;SDS011;11504;43.334;21.918;2023-02-12T08:36:50;162.0;;;146.0;;
22673;SDS011;11504;43.334;21.918;2023-02-12T08:41:32;182.0;;;165.0;;
22673;SDS011;11504;43.334;21.918;2023-02-12T08:46:14;182.0;;;165.0;;
22673;SDS011;11504;43.334;21.918;2023-02-12T08:51:09;174.0;;;158.0;;
22673;SDS011;11504;43.334;21.918;2023-02-12T08:55:55;174.0;;;158.0;;
22673;SDS011;11504;43.334;21.918;2023-02-12T09:00:32;167.0;;;150.0;;
22673;SDS011;11504;43.334;21.918;2023-02-12T09:05:09;167.0;;;150.0;;
22673;SDS011;11504;43.334;21.918;2023-02-12T09:09:45;147.0;;;128.0;;
22673;SDS011;11504;43.334;21.918;2023-02-12T09:14:22;147.0;;;128.0;;
22673;SDS011;11504;43.334;21.918;2023-02-12T09:19:00;147.0;;;128.0;;
22673;SDS011;11504;43.334;21.918;2023-02-12T09:23:39;127.0;;;106.0;;
22673;SDS011;11504;43.334;21.918;2023-02-12T09:28:18;127.0;;;106.0;;
22673;SDS011;11504;43.334;21.918;2023-02-12T09:32:55;106.0;;;88.0;;
22673;SDS011;11504;43.334;21.918;2023-02-12T09:37:32;106.0;;;88.0;;
22673;SDS011;11504;43.334;21.918;2023-02-12T09:42:27;84.0;;;71.0;;
22673;SDS011;11504;43.334;21.918;2023-02-12T09:47:58;84.0;;;71.0;;
22673;SDS011;11504;43.334;21.918;2023-02-12T09:53:36;90.0;;;76.0;;
22673;SDS011;11504;43.334;21.918;2023-02-12T09:58:42;90.0;;;76.0;;
22673;SDS011;11504;43.334;21.918;2023-02-12T10:03:33;96.0;;;82.0;;
22673;SDS011;11504;43.334;21.918;2023-02-12T10:08:30;96.0;;;82.0;;
22673;SDS011;11504;43.334;21.918;2023-02-12T10:14:04;84.0;;;73.0;;
22673;SDS011;11504;43.334;21.918;2023-02-12T10:20:10;73.0;;;64.0;;
22673;SDS011;11504;43.334;21.918;2023-02-12T10:27:38;73.0;;;64.0;;
22673;SDS011;11504;43.334;21.918;2023-02-12T10:32:30;83.0;;;71.0;;
22673;SDS011;11504;43.334;21.918;2023-02-12T10:37:25;83.0;;;71.0;;
22673;SDS011;11504;43.334;21.918;2023-02-12T10:42:35;93.0;;;78.0;;
22673;SDS011;11504;43.334;21.918;2023-02-12T10:47:21;93.0;;;78.0;;
22673;SDS011;11504;43.334;21.918;2023-02-12T10:52:08;94.0;;;78.0;;
22673;SDS011;11504;43.334;21.918;2023-02-12T10:57:20;94.0;;;78.0;;
22673;SDS011;11504;43.334;21.918;2023-02-12T11:02:21;96.0;;;78.0;;
22673;SDS011;11504;43.334;21.918;2023-02-12T11:07:07;96.0;;;78.0;;
22673;SDS011;11504;43.334;21.918;2023-02-12T11:11:44;94.0;;;76.0;;
22673;SDS011;11504;43.334;21.918;2023-02-12T11:16:28;94.0;;;76.0;;
22673;SDS011;11504;43.334;21.918;2023-02-12T11:21:25;93.0;;;73.0;;
22673;SDS011;11504;43.334;21.918;2023-02-12T11:26:05;93.0;;;73.0;;
22673;SDS011;11504;43.334;21.918;2023-02-12T11:31:21;86.0;;;68.0;;
22673;SDS011;11504;43.334;21.918;2023-02-12T11:36:18;86.0;;;68.0;;
22673;SDS011;11504;43.334;21.918;2023-02-12T11:41:16;78.0;;;62.0;;
22673;SDS011;11504;43.334;21.918;2023-02-12T11:46:20;78.0;;;62.0;;
22673;SDS011;11504;43.334;21.918;2023-02-12T11:51:08;72.0;;;57.0;;
22673;SDS011;11504;43.334;21.918;2023-02-12T11:56:10;72.0;;;57.0;;
22673;SDS011;11504;43.334;21.918;2023-02-12T12:00:59;65.0;;;52.0;;
22673;SDS011;11504;43.334;21.918;2023-02-12T12:06:05;65.0;;;52.0;;
22673;SDS011;11504;43.334;21.918;2023-02-12T12:11:15;67.0;;;52.0;;
22673;SDS011;11504;43.334;21.918;2023-02-12T12:16:19;67.0;;;52.0;;
22673;SDS011;11504;43.334;21.918;2023-02-12T12:21:15;69.0;;;53.0;;
22673;SDS011;11504;43.334;21.918;2023-02-12T12:26:21;69.0;;;53.0;;
22673;SDS011;11504;43.334;21.918;2023-02-12T12:31:09;70.0;;;56.0;;
22673;SDS011;11504;43.334;21.918;2023-02-12T12:36:13;70.0;;;56.0;;
22673;SDS011;11504;43.334;21.918;2023-02-12T12:42:54;71.0;;;59.0;;
22673;SDS011;11504;43.334;21.918;2023-02-12T12:48:19;71.0;;;59.0;;
22673;SDS011;11504;43.334;21.918;2023-02-12T12:54:02;70.0;;;58.0;;
22673;SDS011;11504;43.334;21.918;2023-02-12T13:00:21;70.0;;;56.0;;
22673;SDS011;11504;43.334;21.918;2023-02-12T13:06:05;70.0;;;56.0;;
22673;SDS011;11504;43.334;21.918;2023-02-12T13:11:44;70.0;;;54.0;;
22673;SDS011;11504;43.334;21.918;2023-02-12T13:17:26;70.0;;;54.0;;
22673;SDS011;11504;43.334;21.918;2023-02-12T13:22:31;69.0;;;53.0;;
22673;SDS011;11504;43.334;21.918;2023-02-12T13:27:32;69.0;;;53.0;;
22673;SDS011;11504;43.334;21.918;2023-02-12T13:32:24;72.0;;;58.0;;
22673;SDS011;11504;43.334;21.918;2023-02-12T13:37:17;72.0;;;58.0;;
22673;SDS011;11504;43.334;21.918;2023-02-12T13:42:34;75.0;;;64.0;;
22673;SDS011;11504;43.334;21.918;2023-02-12T13:47:35;75.0;;;64.0;;
22673;SDS011;11504;43.334;21.918;2023-02-12T13:53:16;71.0;;;60.0;;
22673;SDS011;11504;43.334;21.918;2023-02-12T13:58:58;71.0;;;60.0;;
22673;SDS011;11504;43.334;21.918;2023-02-12T14:03:37;67.0;;;55.0;;
22673;SDS011;11504;43.334;21.918;2023-02-12T14:08:35;67.0;;;55.0;;
22673;SDS011;11504;43.334;21.918;2023-02-12T14:13:25;70.0;;;60.0;;
22673;SDS011;11504;43.334;21.918;2023-02-12T14:18:21;70.0;;;60.0;;
22673;SDS011;11504;43.334;21.918;2023-02-12T14:23:27;74.0;;;64.0;;
22673;SDS011;11504;43.334;21.918;2023-02-12T14:28:31;74.0;;;64.0;;
22673;SDS011;11504;43.334;21.918;2023-02-12T14:33:39;74.0;;;64.0;;
22673;SDS011;11504;43.334;21.918;2023-02-12T14:40:39;73.0;;;64.0;;
22673;SDS011;11504;43.334;21.918;2023-02-12T14:45:29;73.0;;;64.0;;
22673;SDS011;11504;43.334;21.918;2023-02-12T14:50:19;75.0;;;65.0;;
22673;SDS011;11504;43.334;21.918;2023-02-12T14:55:24;75.0;;;65.0;;
22673;SDS011;11504;43.334;21.918;2023-02-12T15:00:22;77.0;;;66.0;;
22673;SDS011;11504;43.334;21.918;2023-02-12T15:05:18;77.0;;;66.0;;
22673;SDS011;11504;43.334;21.918;2023-02-12T15:10:14;84.0;;;68.0;;
22673;SDS011;11504;43.334;21.918;2023-02-12T15:15:14;84.0;;;68.0;;
22673;SDS011;11504;43.334;21.918;2023-02-12T15:20:19;92.0;;;71.0;;
22673;SDS011;11504;43.334;21.918;2023-02-12T15:25:23;92.0;;;71.0;;
22673;SDS011;11504;43.334;21.918;2023-02-12T15:30:15;84.0;;;70.0;;
22673;SDS011;11504;43.334;21.918;2023-02-12T15:35:04;84.0;;;70.0;;
22673;SDS011;11504;43.334;21.918;2023-02-12T15:40:02;76.0;;;68.0;;
22673;SDS011;11504;43.334;21.918;2023-02-12T15:44:50;76.0;;;68.0;;
22673;SDS011;11504;43.334;21.918;2023-02-12T15:49:32;76.0;;;68.0;;
22673;SDS011;11504;43.334;21.918;2023-02-12T15:54:18;78.0;;;68.0;;
22673;SDS011;11504;43.334;21.918;2023-02-12T15:58:59;78.0;;;68.0;;
22673;SDS011;11504;43.334;21.918;2023-02-12T16:03:39;79.0;;;67.0;;
22673;SDS011;11504;43.334;21.918;2023-02-12T16:08:19;79.0;;;67.0;;
22673;SDS011;11504;43.334;21.918;2023-02-12T16:12:59;76.0;;;64.0;;
22673;SDS011;11504;43.334;21.918;2023-02-12T16:17:36;76.0;;;64.0;;
22673;SDS011;11504;43.334;21.918;2023-02-12T16:22:27;72.0;;;61.0;;
22673;SDS011;11504;43.334;21.918;2023-02-12T16:27:19;72.0;;;61.0;;
22673;SDS011;11504;43.334;21.918;2023-02-12T16:32:06;82.0;;;68.0;;
22673;SDS011;11504;43.334;21.918;2023-02-12T16:37:42;82.0;;;68.0;;
22673;SDS011;11504;43.334;21.918;2023-02-12T16:42:27;91.0;;;74.0;;
22673;SDS011;11504;43.334;21.918;2023-02-12T16:47:04;91.0;;;74.0;;
22673;SDS011;11504;43.334;21.918;2023-02-12T16:51:43;89.0;;;76.0;;
22673;SDS011;11504;43.334;21.918;2023-02-12T16:56:28;89.0;;;76.0;;
22673;SDS011;11504;43.334;21.918;2023-02-12T17:01:18;87.0;;;78.0;;
22673;SDS011;11504;43.334;21.918;2023-02-12T17:06:05;87.0;;;78.0;;
22673;SDS011;11504;43.334;21.918;2023-02-12T17:10:45;94.0;;;82.0;;
22673;SDS011;11504;43.334;21.918;2023-02-12T17:15:29;94.0;;;82.0;;
22673;SDS011;11504;43.334;21.918;2023-02-12T17:20:31;102.0;;;86.0;;
22673;SDS011;11504;43.334;21.918;2023-02-12T17:25:09;102.0;;;86.0;;
22673;SDS011;11504;43.334;21.918;2023-02-12T17:29:49;102.0;;;86.0;;
22673;SDS011;11504;43.334;21.918;2023-02-12T17:34:25;112.0;;;92.0;;
22673;SDS011;11504;43.334;21.918;2023-02-12T17:39:07;112.0;;;92.0;;
22673;SDS011;11504;43.334;21.918;2023-02-12T17:43:50;123.0;;;98.0;;
22673;SDS011;11504;43.334;21.918;2023-02-12T17:48:27;123.0;;;98.0;;
22673;SDS011;11504;43.334;21.918;2023-02-12T17:53:04;116.0;;;95.0;;
22673;SDS011;11504;43.334;21.918;2023-02-12T17:57:44;116.0;;;95.0;;
22673;SDS011;11504;43.334;21.918;2023-02-12T18:02:20;110.0;;;92.0;;
22673;SDS011;11504;43.334;21.918;2023-02-12T18:06:57;110.0;;;92.0;;
22673;SDS011;11504;43.334;21.918;2023-02-12T18:11:33;111.0;;;92.0;;
22673;SDS011;11504;43.334;21.918;2023-02-12T18:16:10;111.0;;;92.0;;
22673;SDS011;11504;43.334;21.918;2023-02-12T18:20:49;112.0;;;92.0;;
22673;SDS011;11504;43.334;21.918;2023-02-12T18:25:25;112.0;;;92.0;;
22673;SDS011;11504;43.334;21.918;2023-02-12T18:30:03;108.0;;;92.0;;
22673;SDS011;11504;43.334;21.918;2023-02-12T18:34:45;108.0;;;92.0;;
22673;SDS011;11504;43.334;21.918;2023-02-12T18:39:22;108.0;;;92.0;;
22673;SDS011;11504;43.334;21.918;2023-02-12T18:43:59;104.0;;;93.0;;
22673;SDS011;11504;43.334;21.918;2023-02-12T18:48:36;104.0;;;93.0;;
22673;SDS011;11504;43.334;21.918;2023-02-12T18:53:13;142.0;;;125.0;;
22673;SDS011;11504;43.334;21.918;2023-02-12T18:57:49;142.0;;;125.0;;
22673;SDS011;11504;43.334;21.918;2023-02-12T19:02:26;179.0;;;157.0;;
22673;SDS011;11504;43.334;21.918;2023-02-12T19:07:02;179.0;;;157.0;;
22673;SDS011;11504;43.334;21.918;2023-02-12T19:11:39;162.0;;;141.0;;
22673;SDS011;11504;43.334;21.918;2023-02-12T19:16:17;162.0;;;141.0;;
22673;SDS011;11504;43.334;21.918;2023-02-12T19:20:58;144.0;;;125.0;;
22673;SDS011;11504;43.334;21.918;2023-02-12T19:25:41;144.0;;;125.0;;
22673;SDS011;11504;43.334;21.918;2023-02-12T19:30:18;131.0;;;112.0;;
22673;SDS011;11504;43.334;21.918;2023-02-12T19:34:56;131.0;;;112.0;;
22673;SDS011;11504;43.334;21.918;2023-02-12T19:39:32;131.0;;;112.0;;
22673;SDS011;11504;43.334;21.918;2023-02-12T19:44:12;118.0;;;100.0;;
22673;SDS011;11504;43.334;21.918;2023-02-12T19:49:01;118.0;;;100.0;;
22673;SDS011;11504;43.334;21.918;2023-02-12T19:53:39;180.0;;;157.0;;
22673;SDS011;11504;43.334;21.918;2023-02-12T19:58:17;180.0;;;157.0;;
22673;SDS011;11504;43.334;21.918;2023-02-12T20:02:54;243.0;;;214.0;;
22673;SDS011;11504;43.334;21.918;2023-02-12T20:07:31;243.0;;;214.0;;
22673;SDS011;11504;43.334;21.918;2023-02-12T20:12:07;226.0;;;200.0;;
22673;SDS011;11504;43.334;21.918;2023-02-12T20:16:44;226.0;;;200.0;;
22673;SDS011;11504;43.334;21.918;2023-02-12T20:21:25;210.0;;;185.0;;
22673;SDS011;11504;43.334;21.918;2023-02-12T20:26:05;210.0;;;185.0;;
22673;SDS011;11504;43.334;21.918;2023-02-12T20:30:48;184.0;;;168.0;;
22673;SDS011;11504;43.334;21.918;2023-02-12T20:35:25;184.0;;;168.0;;
22673;SDS011;11504;43.334;21.918;2023-02-12T20:40:03;184.0;;;168.0;;
22673;SDS011;11504;43.334;21.918;2023-02-12T20:44:43;159.0;;;150.0;;
22673;SDS011;11504;43.334;21.918;2023-02-12T20:49:20;159.0;;;150.0;;
22673;SDS011;11504;43.334;21.918;2023-02-12T20:53:59;186.0;;;168.0;;
22673;SDS011;11504;43.334;21.918;2023-02-12T20:58:39;186.0;;;168.0;;
22673;SDS011;11504;43.334;21.918;2023-02-12T21:03:19;214.0;;;185.0;;
22673;SDS011;11504;43.334;21.918;2023-02-12T21:07:56;214.0;;;185.0;;
22673;SDS011;11504;43.334;21.918;2023-02-12T21:12:33;196.0;;;176.0;;
22673;SDS011;11504;43.334;21.918;2023-02-12T21:17:09;196.0;;;176.0;;
22673;SDS011;11504;43.334;21.918;2023-02-12T21:21:46;178.0;;;166.0;;
22673;SDS011;11504;43.334;21.918;2023-02-12T21:26:25;178.0;;;166.0;;
22673;SDS011;11504;43.334;21.918;2023-02-12T21:31:10;216.0;;;196.0;;
22673;SDS011;11504;43.334;21.918;2023-02-12T21:35:54;216.0;;;196.0;;
22673;SDS011;11504;43.334;21.918;2023-02-12T21:40:31;255.0;;;225.0;;
22673;SDS011;11504;43.334;21.918;2023-02-12T21:45:08;255.0;;;225.0;;
22673;SDS011;11504;43.334;21.918;2023-02-12T21:49:44;255.0;;;225.0;;
22673;SDS011;11504;43.334;21.918;2023-02-12T21:54:22;240.0;;;214.0;;
22673;SDS011;11504;43.334;21.918;2023-02-12T21:59:01;240.0;;;214.0;;
22673;SDS011;11504;43.334;21.918;2023-02-12T22:03:40;226.0;;;203.0;;
22673;SDS011;11504;43.334;21.918;2023-02-12T22:08:19;226.0;;;203.0;;
22673;SDS011;11504;43.334;21.918;2023-02-12T22:12:58;203.0;;;178.0;;
22673;SDS011;11504;43.334;21.918;2023-02-12T22:17:36;203.0;;;178.0;;
22673;SDS011;11504;43.334;21.918;2023-02-12T22:22:13;180.0;;;153.0;;
22673;SDS011;11504;43.334;21.918;2023-02-12T22:26:49;180.0;;;153.0;;
22673;SDS011;11504;43.334;21.918;2023-02-12T22:31:32;156.0;;;130.0;;
22673;SDS011;11504;43.334;21.918;2023-02-12T22:36:20;156.0;;;130.0;;
22673;SDS011;11504;43.334;21.918;2023-02-12T22:41:03;132.0;;;107.0;;
22673;SDS011;11504;43.334;21.918;2023-02-12T22:45:45;132.0;;;107.0;;
22673;SDS011;11504;43.334;21.918;2023-02-12T22:50:22;142.0;;;117.0;;
22673;SDS011;11504;43.334;21.918;2023-02-12T22:54:58;142.0;;;117.0;;
22673;SDS011;11504;43.334;21.918;2023-02-12T22:59:35;142.0;;;117.0;;
22673;SDS011;11504;43.334;21.918;2023-02-12T23:04:14;152.0;;;127.0;;
22673;SDS011;11504;43.334;21.918;2023-02-12T23:08:57;152.0;;;127.0;;
22673;SDS011;11504;43.334;21.918;2023-02-12T23:13:39;153.0;;;126.0;;
22673;SDS011;11504;43.334;21.918;2023-02-12T23:18:16;153.0;;;126.0;;
22673;SDS011;11504;43.334;21.918;2023-02-12T23:22:53;154.0;;;124.0;;
22673;SDS011;11504;43.334;21.918;2023-02-12T23:27:29;154.0;;;124.0;;
22673;SDS011;11504;43.334;21.918;2023-02-12T23:32:06;132.0;;;108.0;;
22673;SDS011;11504;43.334;21.918;2023-02-12T23:36:43;132.0;;;108.0;;
22673;SDS011;11504;43.334;21.918;2023-02-12T23:41:20;111.0;;;91.0;;
22673;SDS011;11504;43.334;21.918;2023-02-12T23:45:57;111.0;;;91.0;;
22673;SDS011;11504;43.334;21.918;2023-02-12T23:50:35;118.0;;;97.0;;
22673;SDS011;11504;43.334;21.918;2023-02-12T23:55:11;118.0;;;97.0;;
22673;SDS011;11504;43.334;21.918;2023-02-12T23:59:48;118.0;;;97.0;;
